Cody Paul — WDC8106 — position and weather

sailwx.info

Track history (hours):
 
Tides and Currents Weather Stations Pressure Air Temp Water Temp Dewpoint Dewpoint Depression Visibility Wind Speed Wind Dir Waves Ship Positions

Cody Paul

Owner: Triple S Marine, LLC, Morgan City, LA. More information available from US FCC via Universal Licensing System and Coast Guard Vessel Documentation Center.

Last reported at 2018-Jan-21 15:18 UTC. Time now 2018-Jan-22 18:37 UTC.
Position N 29°34' W 090°28'.

Length 16 m; draft 3 m.

Type: Tug. MMSI: 367081770.

Date/timePositionNaut miles runAvg speedWind from/ knotsBaromVisibWave heightAir tempDewpointWater temp
2018-Jan-21 15:18N 29°34' W 090°28'2 7.1
2018-Jan-21 15:00N 29°34' W 090°31'1 0.2
2018-Jan-21 10:24N 29°33' W 090°32'0 0.2
2018-Jan-21 09:55N 29°33' W 090°32'0 0.0
2018-Jan-21 09:26N 29°33' W 090°32'3 0.1
2018-Jan-20 08:43N 29°33' W 090°28'2 7.3
2018-Jan-20 08:30N 29°34' W 090°30'2 3.1
2018-Jan-20 08:00N 29°33' W 090°32'8 2.8
2018-Jan-20 05:15N 29°34' W 090°23'1 2.7
2018-Jan-20 04:59N 29°34' W 090°22'1 2.8
2018-Jan-20 04:27N 29°33' W 090°21'7 0.3
2018-Jan-19 07:23N 29°34' W 090°29'3 7.2
2018-Jan-19 07:00N 29°34' W 090°32'0 0.5
2018-Jan-19 06:28N 29°33' W 090°32'0 0.4
2018-Jan-19 05:33N 29°34' W 090°32'0 2.1
2018-Jan-19 05:28N 29°34' W 090°32'3 6.5
2018-Jan-19 05:00N 29°35' W 090°35'3 5.3
2018-Jan-19 04:30N 29°35' W 090°38'3 5.5
2018-Jan-19 04:00N 29°36' W 090°41'2 3.7
2018-Jan-19 03:30N 29°35' W 090°43'2 4.6
2018-Jan-19 03:00N 29°34' W 090°45'3 5.7
2018-Jan-19 02:29N 29°32' W 090°48'4 6.6
2018-Jan-19 01:50N 29°32' W 090°53'6 5.7
2018-Jan-19 00:51N 29°35' W 090°58'  
Track history (hours):
 
Tides and Currents Weather Stations Pressure Air Temp Water Temp Dewpoint Dewpoint Depression Visibility Wind Speed Wind Dir Waves Ship Positions

Cody Paul

Owner: Triple S Marine, LLC, Morgan City, LA. More information available from US FCC via Universal Licensing System and Coast Guard Vessel Documentation Center.

Last reported at 2018-Jan-21 15:18 UTC. Time now 2018-Jan-22 18:37 UTC.
Position N 29°34' W 090°28'.

Length 16 m; draft 3 m.

Type: Tug. MMSI: 367081770.

Date/timePositionNaut miles runAvg speedWind from/ knotsBaromVisibWave heightAir tempDewpointWater temp
2018-Jan-21 15:18N 29°34' W 090°28'2 7.1
2018-Jan-21 15:00N 29°34' W 090°31'1 0.2
2018-Jan-21 10:24N 29°33' W 090°32'0 0.2
2018-Jan-21 09:55N 29°33' W 090°32'0 0.0
2018-Jan-21 09:26N 29°33' W 090°32'3 0.1
2018-Jan-20 08:43N 29°33' W 090°28'2 7.3
2018-Jan-20 08:30N 29°34' W 090°30'2 3.1
2018-Jan-20 08:00N 29°33' W 090°32'8 2.8
2018-Jan-20 05:15N 29°34' W 090°23'1 2.7
2018-Jan-20 04:59N 29°34' W 090°22'1 2.8
2018-Jan-20 04:27N 29°33' W 090°21'7 0.3
2018-Jan-19 07:23N 29°34' W 090°29'3 7.2
2018-Jan-19 07:00N 29°34' W 090°32'0 0.5
2018-Jan-19 06:28N 29°33' W 090°32'0 0.4
2018-Jan-19 05:33N 29°34' W 090°32'0 2.1
2018-Jan-19 05:28N 29°34' W 090°32'3 6.5
2018-Jan-19 05:00N 29°35' W 090°35'3 5.3
2018-Jan-19 04:30N 29°35' W 090°38'3 5.5
2018-Jan-19 04:00N 29°36' W 090°41'2 3.7
2018-Jan-19 03:30N 29°35' W 090°43'2 4.6
2018-Jan-19 03:00N 29°34' W 090°45'3 5.7
2018-Jan-19 02:29N 29°32' W 090°48'4 6.6
2018-Jan-19 01:50N 29°32' W 090°53'6 5.7
2018-Jan-19 00:51N 29°35' W 090°58'  

Dump ship's entire track history